AirNav   TITAN Aviation Fuels
 
 371 users online  

LS79 Hardtner Medical Center Heliport
Urania, Louisiana, USA

GOING TO URANIA?


FAA INFORMATION EFFECTIVE 08 SEPTEMBER 2022

Location

FAA Identifier: LS79
Lat/Long: 31-51-30.4700N 092-16-35.0200W
31-51.507833N 092-16.583667W
31.8584639,-92.2763944
(estimated)
Elevation: 90 ft. / 27 m (estimated)
Variation: 04E (1985)
Time zone: UTC -5 (UTC -6 during Standard Time)
Zip code: 71465

Heliport Operations

Heliport use: Private use, MEDICAL.
Activation date: 11/1990
Control tower: no
ARTCC: HOUSTON CENTER
FSS: DE RIDDER FLIGHT SERVICE STATION
Attendance: UNATNDD
Wind indicator: lighted
Segmented circle: no
Beacon: white-green-yellow (heliport)
Operates sunset to sunrise.

Nearby radio navigation aids

VOR radial/distance  VOR name  Freq  Var
SWBr107/21.5SAWMILL VOR/DME113.7502E
AEXr015/37.9ALEXANDRIA VORTAC116.1003E

Heliport Services

Runway Information

Helipad H1

Dimensions: 40 x 40 ft. / 12 x 12 m
Surface: concrete
Runway edge lights: PERI
Latitude: 31-51.507833N
Longitude: 092-16.583667W
Elevation: 90.0 ft.
Traffic pattern: leftleft

Heliport Ownership and Management from official FAA records

Ownership: Publicly-owned
Owner: HARDTNER MEDICAL CENTER
1102 NORTH PINE RD
OLLA, LA 71465
Phone 318-495-3131
Manager: RAY ATWELL
1102 NORTH PINE RD
OLLA, LA 71465
Phone 318-312-0826

Additional Remarks

NEW HELIPAD LOCATION NEAR HWY 165-CAUTION WIRES (MARKED).
FOR CD CTC POLK APCH AT 337-531-2352.

Instrument Procedures

There are no published instrument procedures at LS79.

Some nearby airports with instrument procedures:

0R5 - David G Joyce Airport (21 nm W)
KESF - Esler Regional Airport (28 nm S)
F88 - Jonesboro Airport (31 nm NW)
KAEX - Alexandria International Airport (35 nm SW)
KMLU - Monroe Regional Airport (41 nm N)
 
Loc | Ops | Rwys | IFR | FBO | Links
Com | Nav | Svcs | Stats | Notes
Area around LS79 (Hardtner Medical Center Heliport)
 
Road maps at: MapQuest Bing Google
 
Aerial photo
No photo
 
Sectional chart

 
Airport distance calculator
Flying to Hardtner Medical Center Heliport? Find the distance to fly.

From to LS79

Sunrise and sunset
Times for 02-Oct-2022
 Local
(UTC-5)
 Zulu
(UTC)
Morning civil twilight06:4011:40
Sunrise07:0512:05
Sunset18:5223:52
Evening civil twilight19:1700:17

Current date and time
Zulu (UTC)  02-Oct-2022 09:08:45
Local (UTC-5)  02-Oct-2022 04:08:45
 
METAR
KESF 
28nm S 
020855Z AUTO 00000KT 3SM BR CLR 09/09 A3007 RMK AO2 T00890089 $
KAEX 
35nm SW 
020853Z 00000KT 10SM CLR 11/09 A3007 RMK AO2 SLP184 T01060089 53004 $
KMLU 
41nm N 
020853Z AUTO 00000KT 10SM CLR 13/09 A3009 RMK AO2 SLP189 T01330089 50003
KRSN 
42nm N 
020855Z AUTO 00000KT 10SM CLR 10/08 A3013 RMK AO2 T00950083
KIER 
43nm W 
020855Z AUTO 00000KT 10SM CLR 09/09 A3009 RMK AO2 T00910090
K0R4 
43nm SE 
020855Z AUTO 00000KT 10SM CLR 09/08 A3006 RMK AO2 T00900079
TAF
KAEX 
35nm SW 
020520Z 0206/0306 00000KT P6SM SKC FM021700 02008KT P6SM FEW250 FM030100 VRB03KT P6SM FEW250
KMLU 
41nm N 
020520Z 0206/0306 00000KT P6SM SKC FM021500 03006KT P6SM SKC FM030000 00000KT P6SM SKC
NOTAMs
Click for the latest NOTAMs
NOTAMs are issued by the DoD/FAA and will open in a separate window not controlled by AirNav.

 

 
 

Would you like to see your business listed on this page?

 If your business provides an interesting product or service to pilots, flight crews, aircraft, or users of the Hardtner Medical Center Heliport, you should consider listing it here.  To start the listing process, click on the button below
 
Add a business
 

Other Pages about Hardtner Medical Center Heliport

Update a link
 
Copyright © AirNav, LLC. All rights reserved. Privacy Policy  Contact